sensor_id;sensor_type;location;lat;lon;timestamp;pressure;altitude;pressure_sealevel;temperature;humidity
10127;BME280;13080;42.608;23.362;2023-04-26T00:01:53;152584.19;;;5.86;100.00
10127;BME280;13080;42.608;23.362;2023-04-26T00:04:23;152568.66;;;5.80;100.00
10127;BME280;13080;42.608;23.362;2023-04-26T00:06:50;152544.09;;;5.70;100.00
10127;BME280;13080;42.608;23.362;2023-04-26T00:09:16;152538.91;;;5.68;100.00
10127;BME280;13080;42.608;23.362;2023-04-26T00:11:44;152524.66;;;5.62;100.00
10127;BME280;13080;42.608;23.362;2023-04-26T00:14:11;152516.91;;;5.59;100.00
10127;BME280;13080;42.608;23.362;2023-04-26T00:16:37;152510.44;;;5.57;100.00
10127;BME280;13080;42.608;23.362;2023-04-26T00:19:04;152497.53;;;5.52;100.00
10127;BME280;13080;42.608;23.362;2023-04-26T00:21:32;152480.72;;;5.45;100.00
10127;BME280;13080;42.608;23.362;2023-04-26T00:23:59;152470.34;;;5.41;100.00
10127;BME280;13080;42.608;23.362;2023-04-26T00:26:26;152461.28;;;5.37;100.00
10127;BME280;13080;42.608;23.362;2023-04-26T00:28:52;152452.25;;;5.34;100.00
10127;BME280;13080;42.608;23.362;2023-04-26T00:31:19;152447.06;;;5.32;100.00
10127;BME280;13080;42.608;23.362;2023-04-26T00:33:46;152447.06;;;5.32;100.00
10127;BME280;13080;42.608;23.362;2023-04-26T00:36:13;152431.53;;;5.26;100.00
10127;BME280;13080;42.608;23.362;2023-04-26T00:38:42;152410.84;;;5.17;100.00
10127;BME280;13080;42.608;23.362;2023-04-26T00:41:09;152395.34;;;5.11;100.00
10127;BME280;13080;42.608;23.362;2023-04-26T00:43:36;152392.72;;;5.10;100.00
10127;BME280;13080;42.608;23.362;2023-04-26T00:46:03;152378.53;;;5.05;100.00
10127;BME280;13080;42.608;23.362;2023-04-26T00:48:30;152378.53;;;5.05;100.00
10127;BME280;13080;42.608;23.362;2023-04-26T00:50:57;152374.63;;;5.03;100.00
10127;BME280;13080;42.608;23.362;2023-04-26T00:53:24;152375.91;;;5.04;100.00
10127;BME280;13080;42.608;23.362;2023-04-26T00:55:53;152369.47;;;5.01;100.00
10127;BME280;13080;42.608;23.362;2023-04-26T00:58:20;152361.72;;;4.98;100.00
10127;BME280;13080;42.608;23.362;2023-04-26T01:00:47;152346.19;;;4.92;100.00
10127;BME280;13080;42.608;23.362;2023-04-26T01:03:14;152338.47;;;4.89;100.00
10127;BME280;13080;42.608;23.362;2023-04-26T01:05:41;152331.94;;;4.86;100.00
10127;BME280;13080;42.608;23.362;2023-04-26T01:08:08;152322.94;;;4.83;100.00
10127;BME280;13080;42.608;23.362;2023-04-26T01:10:35;152321.66;;;4.82;100.00
10127;BME280;13080;42.608;23.362;2023-04-26T01:13:03;152324.22;;;4.83;100.00
10127;BME280;13080;42.608;23.362;2023-04-26T01:15:30;152315.13;;;4.79;100.00
10127;BME280;13080;42.608;23.362;2023-04-26T01:17:58;152316.47;;;4.80;100.00
10127;BME280;13080;42.608;23.362;2023-04-26T01:20:24;152311.28;;;4.78;100.00
10127;BME280;13080;42.608;23.362;2023-04-26T01:22:53;152309.97;;;4.77;100.00
10127;BME280;13080;42.608;23.362;2023-04-26T01:25:20;152313.84;;;4.79;100.00
10127;BME280;13080;42.608;23.362;2023-04-26T01:27:47;152291.88;;;4.70;100.00
10127;BME280;13080;42.608;23.362;2023-04-26T01:30:13;152284.13;;;4.67;100.00
10127;BME280;13080;42.608;23.362;2023-04-26T01:32:41;152277.69;;;4.65;100.00
10127;BME280;13080;42.608;23.362;2023-04-26T01:35:08;152273.78;;;4.63;100.00
10127;BME280;13080;42.608;23.362;2023-04-26T01:37:34;152275.06;;;4.64;100.00
10127;BME280;13080;42.608;23.362;2023-04-26T01:40:03;152268.59;;;4.61;100.00
10127;BME280;13080;42.608;23.362;2023-04-26T01:42:31;152280.25;;;4.66;100.00
10127;BME280;13080;42.608;23.362;2023-04-26T01:44:58;152278.97;;;4.65;100.00
10127;BME280;13080;42.608;23.362;2023-04-26T01:47:25;152288.03;;;4.69;100.00
10127;BME280;13080;42.608;23.362;2023-04-26T01:49:52;152299.66;;;4.73;100.00
10127;BME280;13080;42.608;23.362;2023-04-26T01:52:19;152303.50;;;4.75;100.00
10127;BME280;13080;42.608;23.362;2023-04-26T01:54:46;152306.13;;;4.76;100.00
10127;BME280;13080;42.608;23.362;2023-04-26T01:57:14;152300.94;;;4.74;100.00
10127;BME280;13080;42.608;23.362;2023-04-26T01:59:41;152307.41;;;4.76;100.00
10127;BME280;13080;42.608;23.362;2023-04-26T02:02:08;152307.41;;;4.76;100.00
10127;BME280;13080;42.608;23.362;2023-04-26T02:04:34;152303.50;;;4.75;100.00
10127;BME280;13080;42.608;23.362;2023-04-26T02:07:01;152309.97;;;4.77;100.00
10127;BME280;13080;42.608;23.362;2023-04-26T02:09:28;152311.28;;;4.78;100.00
10127;BME280;13080;42.608;23.362;2023-04-26T02:11:55;152311.28;;;4.78;100.00
10127;BME280;13080;42.608;23.362;2023-04-26T02:14:23;152302.22;;;4.74;100.00
10127;BME280;13080;42.608;23.362;2023-04-26T02:16:50;152303.50;;;4.75;100.00
10127;BME280;13080;42.608;23.362;2023-04-26T02:19:17;152284.13;;;4.67;100.00
10127;BME280;13080;42.608;23.362;2023-04-26T02:21:51;152284.13;;;4.67;100.00
10127;BME280;13080;42.608;23.362;2023-04-26T02:24:18;152277.69;;;4.65;100.00
10127;BME280;13080;42.608;23.362;2023-04-26T02:26:45;152275.06;;;4.64;100.00
10127;BME280;13080;42.608;23.362;2023-04-26T02:29:12;152278.97;;;4.65;100.00
10127;BME280;13080;42.608;23.362;2023-04-26T02:31:40;152280.25;;;4.66;100.00
10127;BME280;13080;42.608;23.362;2023-04-26T02:34:07;152291.88;;;4.70;100.00
10127;BME280;13080;42.608;23.362;2023-04-26T02:36:34;152302.22;;;4.74;100.00
10127;BME280;13080;42.608;23.362;2023-04-26T02:39:01;152312.56;;;4.78;100.00
10127;BME280;13080;42.608;23.362;2023-04-26T02:41:30;152328.09;;;4.85;100.00
10127;BME280;13080;42.608;23.362;2023-04-26T02:43:57;152344.91;;;4.91;100.00
10127;BME280;13080;42.608;23.362;2023-04-26T02:46:24;152357.81;;;4.96;100.00
10127;BME280;13080;42.608;23.362;2023-04-26T02:48:52;152379.81;;;5.05;100.00
10127;BME280;13080;42.608;23.362;2023-04-26T02:51:18;152403.09;;;5.14;100.00
10127;BME280;13080;42.608;23.362;2023-04-26T02:53:45;152418.63;;;5.20;100.00
10127;BME280;13080;42.608;23.362;2023-04-26T02:56:12;152439.28;;;5.29;100.00
10127;BME280;13080;42.608;23.362;2023-04-26T02:58:39;152452.25;;;5.34;100.00
10127;BME280;13080;42.608;23.362;2023-04-26T03:01:05;152454.81;;;5.35;100.00
10127;BME280;13080;42.608;23.362;2023-04-26T03:03:32;152449.63;;;5.33;100.00
10127;BME280;13080;42.608;23.362;2023-04-26T03:06:01;152448.34;;;5.32;100.00
10127;BME280;13080;42.608;23.362;2023-04-26T03:08:28;152462.56;;;5.38;100.00
10127;BME280;13080;42.608;23.362;2023-04-26T03:10:55;152456.09;;;5.35;100.00
10127;BME280;13080;42.608;23.362;2023-04-26T03:13:22;152452.25;;;5.34;100.00
10127;BME280;13080;42.608;23.362;2023-04-26T03:15:49;152469.06;;;5.40;100.00
10127;BME280;13080;42.608;23.362;2023-04-26T03:18:16;152472.91;;;5.42;100.00
10127;BME280;13080;42.608;23.362;2023-04-26T03:20:44;152480.72;;;5.45;100.00
10127;BME280;13080;42.608;23.362;2023-04-26T03:23:12;152466.47;;;5.39;100.00
10127;BME280;13080;42.608;23.362;2023-04-26T03:25:39;152479.38;;;5.45;100.00
10127;BME280;13080;42.608;23.362;2023-04-26T03:28:06;152475.53;;;5.43;100.00
10127;BME280;13080;42.608;23.362;2023-04-26T03:30:32;152471.63;;;5.41;100.00
10127;BME280;13080;42.608;23.362;2023-04-26T03:32:59;152476.81;;;5.44;100.00
10127;BME280;13080;42.608;23.362;2023-04-26T03:35:26;152483.28;;;5.46;100.00
10127;BME280;13080;42.608;23.362;2023-04-26T03:37:52;152483.28;;;5.46;100.00
10127;BME280;13080;42.608;23.362;2023-04-26T03:40:21;152482.00;;;5.46;100.00
10127;BME280;13080;42.608;23.362;2023-04-26T03:42:47;152483.28;;;5.46;100.00
10127;BME280;13080;42.608;23.362;2023-04-26T03:45:14;152471.63;;;5.41;100.00
10127;BME280;13080;42.608;23.362;2023-04-26T03:47:41;152487.16;;;5.48;100.00
10127;BME280;13080;42.608;23.362;2023-04-26T03:50:09;152489.72;;;5.49;100.00
10127;BME280;13080;42.608;23.362;2023-04-26T03:52:36;152520.81;;;5.61;100.00
10127;BME280;13080;42.608;23.362;2023-04-26T03:55:06;152532.44;;;5.66;100.00
10127;BME280;13080;42.608;23.362;2023-04-26T03:57:35;152551.84;;;5.73;100.00
10127;BME280;13080;42.608;23.362;2023-04-26T04:00:03;152572.56;;;5.81;100.00
10127;BME280;13080;42.608;23.362;2023-04-26T04:02:32;152586.78;;;5.87;100.00
10127;BME280;13080;42.608;23.362;2023-04-26T04:04:59;152598.41;;;5.92;100.00
10127;BME280;13080;42.608;23.362;2023-04-26T04:07:26;152612.72;;;5.97;100.00
10127;BME280;13080;42.608;23.362;2023-04-26T04:09:53;152630.84;;;6.04;100.00
10127;BME280;13080;42.608;23.362;2023-04-26T04:12:19;152638.63;;;6.08;100.00
10127;BME280;13080;42.608;23.362;2023-04-26T04:14:48;152647.66;;;6.11;100.00
10127;BME280;13080;42.608;23.362;2023-04-26T04:17:15;152660.59;;;6.16;100.00
10127;BME280;13080;42.608;23.362;2023-04-26T04:19:42;152676.13;;;6.22;100.00
10127;BME280;13080;42.608;23.362;2023-04-26T04:22:09;152685.22;;;6.26;100.00
10127;BME280;13080;42.608;23.362;2023-04-26T04:24:36;152709.78;;;6.36;100.00
10127;BME280;13080;42.608;23.362;2023-04-26T04:27:03;152721.44;;;6.40;100.00
10127;BME280;13080;42.608;23.362;2023-04-26T04:29:29;152735.72;;;6.46;100.00
10127;BME280;13080;42.608;23.362;2023-04-26T04:31:58;152764.19;;;6.57;100.00
10127;BME280;13080;42.608;23.362;2023-04-26T04:34:25;152793.94;;;6.69;100.00
10127;BME280;13080;42.608;23.362;2023-04-26T04:36:52;152819.88;;;6.79;100.00
10127;BME280;13080;42.608;23.362;2023-04-26T04:39:18;152840.56;;;6.87;100.00
10127;BME280;13080;42.608;23.362;2023-04-26T04:41:45;152860.00;;;6.95;100.00
10127;BME280;13080;42.608;23.362;2023-04-26T04:44:13;152863.88;;;6.97;100.00
10127;BME280;13080;42.608;23.362;2023-04-26T04:46:41;152927.31;;;7.22;100.00
10127;BME280;13080;42.608;23.362;2023-04-26T04:49:10;152928.66;;;7.22;100.00
10127;BME280;13080;42.608;23.362;2023-04-26T04:51:37;152944.16;;;7.28;100.00
10127;BME280;13080;42.608;23.362;2023-04-26T04:54:11;152914.38;;;7.17;100.00
10127;BME280;13080;42.608;23.362;2023-04-26T04:56:38;152926.03;;;7.21;100.00
10127;BME280;13080;42.608;23.362;2023-04-26T04:59:05;152918.28;;;7.18;100.00
10127;BME280;13080;42.608;23.362;2023-04-26T05:01:32;152929.94;;;7.23;100.00
10127;BME280;13080;42.608;23.362;2023-04-26T05:04:00;152918.28;;;7.18;100.00
10127;BME280;13080;42.608;23.362;2023-04-26T05:06:28;152922.19;;;7.20;100.00
10127;BME280;13080;42.608;23.362;2023-04-26T05:08:56;152941.59;;;7.27;100.00
10127;BME280;13080;42.608;23.362;2023-04-26T05:11:23;152937.69;;;7.26;100.00
10127;BME280;13080;42.608;23.362;2023-04-26T05:13:50;152979.19;;;7.42;100.00
10127;BME280;13080;42.608;23.362;2023-04-26T05:16:17;152975.28;;;7.41;100.00
10127;BME280;13080;42.608;23.362;2023-04-26T05:18:43;152993.41;;;7.48;100.00
10127;BME280;13080;42.608;23.362;2023-04-26T05:21:10;152990.84;;;7.47;100.00
10127;BME280;13080;42.608;23.362;2023-04-26T05:23:38;152997.31;;;7.49;100.00
10127;BME280;13080;42.608;23.362;2023-04-26T05:26:06;153003.78;;;7.52;100.00
10127;BME280;13080;42.608;23.362;2023-04-26T05:28:35;153023.22;;;7.60;100.00
10127;BME280;13080;42.608;23.362;2023-04-26T05:31:02;153050.44;;;7.70;100.00
10127;BME280;13080;42.608;23.362;2023-04-26T05:33:29;153041.38;;;7.67;100.00
10127;BME280;13080;42.608;23.362;2023-04-26T05:35:56;153038.78;;;7.66;100.00
10127;BME280;13080;42.608;23.362;2023-04-26T05:38:22;153077.66;;;7.81;100.00
10127;BME280;13080;42.608;23.362;2023-04-26T05:40:51;153060.81;;;7.75;100.00
10127;BME280;13080;42.608;23.362;2023-04-26T05:43:18;153098.41;;;7.89;100.00
10127;BME280;13080;42.608;23.362;2023-04-26T05:45:51;153133.41;;;8.03;100.00
10127;BME280;13080;42.608;23.362;2023-04-26T05:48:18;153167.09;;;8.17;100.00
10127;BME280;13080;42.608;23.362;2023-04-26T05:50:45;153169.69;;;8.18;100.00
10127;BME280;13080;42.608;23.362;2023-04-26T05:53:12;153203.38;;;8.31;100.00
10127;BME280;13080;42.608;23.362;2023-04-26T05:55:39;153216.34;;;8.36;100.00
10127;BME280;13080;42.608;23.362;2023-04-26T05:58:08;153237.16;;;8.44;100.00
10127;BME280;13080;42.608;23.362;2023-04-26T06:00:35;153228.06;;;8.41;100.00
10127;BME280;13080;42.608;23.362;2023-04-26T06:03:02;153185.25;;;8.24;100.00
10127;BME280;13080;42.608;23.362;2023-04-26T06:05:29;153196.91;;;8.28;100.00
10127;BME280;13080;42.608;23.362;2023-04-26T06:07:57;153247.53;;;8.48;100.00
10127;BME280;13080;42.608;23.362;2023-04-26T06:10:25;153311.06;;;8.73;100.00
10127;BME280;13080;42.608;23.362;2023-04-26T06:12:52;153330.56;;;8.81;100.00
10127;BME280;13080;42.608;23.362;2023-04-26T06:15:20;153343.50;;;8.86;100.00
10127;BME280;13080;42.608;23.362;2023-04-26T06:17:47;153427.84;;;9.20;100.00
10127;BME280;13080;42.608;23.362;2023-04-26T06:20:14;153512.19;;;9.53;98.79
10127;BME280;13080;42.608;23.362;2023-04-26T06:22:40;153413.53;;;9.14;92.78
10127;BME280;13080;42.608;23.362;2023-04-26T06:25:08;153471.91;;;9.37;95.17
10127;BME280;13080;42.608;23.362;2023-04-26T06:27:35;153455.03;;;9.30;91.01
10127;BME280;13080;42.608;23.362;2023-04-26T06:30:04;153505.66;;;9.50;93.33
10127;BME280;13080;42.608;23.362;2023-04-26T06:32:37;153534.19;;;9.62;90.22
10127;BME280;13080;42.608;23.362;2023-04-26T06:35:04;153523.88;;;9.57;88.14
10127;BME280;13080;42.608;23.362;2023-04-26T06:37:32;153496.59;;;9.47;85.68
10127;BME280;13080;42.608;23.362;2023-04-26T06:40:01;153549.78;;;9.68;86.46
10127;BME280;13080;42.608;23.362;2023-04-26T06:42:28;153510.84;;;9.52;84.97
10127;BME280;13080;42.608;23.362;2023-04-26T06:44:54;153460.22;;;9.32;85.81
10127;BME280;13080;42.608;23.362;2023-04-26T06:47:21;153440.78;;;9.25;85.03
10127;BME280;13080;42.608;23.362;2023-04-26T06:49:49;153519.94;;;9.56;86.04
10127;BME280;13080;42.608;23.362;2023-04-26T06:52:16;153535.53;;;9.62;84.71
10127;BME280;13080;42.608;23.362;2023-04-26T06:54:43;153548.50;;;9.67;82.20
10127;BME280;13080;42.608;23.362;2023-04-26T06:57:10;153531.63;;;9.61;82.41
10127;BME280;13080;42.608;23.362;2023-04-26T06:59:36;153491.41;;;9.45;81.13
10127;BME280;13080;42.608;23.362;2023-04-26T07:02:03;153519.94;;;9.56;82.55
10127;BME280;13080;42.608;23.362;2023-04-26T07:04:30;153455.03;;;9.30;83.72
10127;BME280;13080;42.608;23.362;2023-04-26T07:06:58;153455.03;;;9.30;80.69
10127;BME280;13080;42.608;23.362;2023-04-26T07:09:25;153453.75;;;9.30;79.13
10127;BME280;13080;42.608;23.362;2023-04-26T07:11:52;153504.38;;;9.50;77.13
10127;BME280;13080;42.608;23.362;2023-04-26T07:14:19;153488.78;;;9.44;81.11
10127;BME280;13080;42.608;23.362;2023-04-26T07:16:46;153488.78;;;9.44;79.32
10127;BME280;13080;42.608;23.362;2023-04-26T07:19:15;153523.88;;;9.57;79.53
10127;BME280;13080;42.608;23.362;2023-04-26T07:21:42;153496.59;;;9.47;77.16
10127;BME280;13080;42.608;23.362;2023-04-26T07:24:10;153519.94;;;9.56;74.77
10127;BME280;13080;42.608;23.362;2023-04-26T07:26:38;153522.53;;;9.57;74.78
10127;BME280;13080;42.608;23.362;2023-04-26T07:29:05;153636.75;;;10.02;76.96
10127;BME280;13080;42.608;23.362;2023-04-26T07:31:32;153710.84;;;10.31;69.76
10127;BME280;13080;42.608;23.362;2023-04-26T07:34:01;153683.53;;;10.20;66.82
10127;BME280;13080;42.608;23.362;2023-04-26T07:36:28;153710.84;;;10.31;62.68
10127;BME280;13080;42.608;23.362;2023-04-26T07:38:55;153766.66;;;10.53;64.90
10127;BME280;13080;42.608;23.362;2023-04-26T07:41:24;153784.88;;;10.60;64.51
10127;BME280;13080;42.608;23.362;2023-04-26T07:43:51;153732.88;;;10.40;61.31
10127;BME280;13080;42.608;23.362;2023-04-26T07:46:17;153712.13;;;10.32;62.81
10127;BME280;13080;42.608;23.362;2023-04-26T07:48:44;153647.13;;;10.06;64.29
10127;BME280;13080;42.608;23.362;2023-04-26T07:51:11;153674.41;;;10.17;64.44
10127;BME280;13080;42.608;23.362;2023-04-26T07:53:38;153732.88;;;10.40;66.80
10127;BME280;13080;42.608;23.362;2023-04-26T07:56:07;153716.00;;;10.33;68.85
10127;BME280;13080;42.608;23.362;2023-04-26T07:58:36;153693.91;;;10.25;70.03
10127;BME280;13080;42.608;23.362;2023-04-26T08:01:03;153754.97;;;10.49;67.17
10127;BME280;13080;42.608;23.362;2023-04-26T08:03:30;153775.75;;;10.57;65.88
10127;BME280;13080;42.608;23.362;2023-04-26T08:05:57;153748.47;;;10.46;67.29
10127;BME280;13080;42.608;23.362;2023-04-26T08:08:24;153739.41;;;10.43;66.40
10127;BME280;13080;42.608;23.362;2023-04-26T08:10:52;153736.78;;;10.42;66.21
10127;BME280;13080;42.608;23.362;2023-04-26T08:13:19;153609.53;;;9.91;67.61
10127;BME280;13080;42.608;23.362;2023-04-26T08:15:47;153566.66;;;9.74;66.54
10127;BME280;13080;42.608;23.362;2023-04-26T08:18:14;153525.16;;;9.58;68.26
10127;BME280;13080;42.608;23.362;2023-04-26T08:20:41;153556.28;;;9.70;68.91
10127;BME280;13080;42.608;23.362;2023-04-26T08:23:08;153538.13;;;9.63;71.17
10127;BME280;13080;42.608;23.362;2023-04-26T08:25:34;153573.16;;;9.77;70.29
10127;BME280;13080;42.608;23.362;2023-04-26T08:28:01;153553.69;;;9.69;70.28
10127;BME280;13080;42.608;23.362;2023-04-26T08:30:28;153566.66;;;9.74;70.81
10127;BME280;13080;42.608;23.362;2023-04-26T08:32:57;153654.97;;;10.09;69.66
10127;BME280;13080;42.608;23.362;2023-04-26T08:35:24;153705.66;;;10.29;73.17
10127;BME280;13080;42.608;23.362;2023-04-26T08:37:51;153742.00;;;10.44;69.65
10127;BME280;13080;42.608;23.362;2023-04-26T08:40:22;153765.38;;;10.53;69.52
10127;BME280;13080;42.608;23.362;2023-04-26T08:42:50;153810.81;;;10.71;69.86
10127;BME280;13080;42.608;23.362;2023-04-26T08:45:18;153823.78;;;10.76;68.66
10127;BME280;13080;42.608;23.362;2023-04-26T08:47:47;153879.66;;;10.98;67.25
10127;BME280;13080;42.608;23.362;2023-04-26T08:50:18;153904.38;;;11.08;64.65
10127;BME280;13080;42.608;23.362;2023-04-26T08:52:47;153983.59;;;11.39;66.56
10127;BME280;13080;42.608;23.362;2023-04-26T08:55:15;153968.03;;;11.33;63.00
10127;BME280;13080;42.608;23.362;2023-04-26T08:57:42;153864.06;;;10.92;65.08
10127;BME280;13080;42.608;23.362;2023-04-26T09:00:12;153860.19;;;10.90;66.78
10127;BME280;13080;42.608;23.362;2023-04-26T09:02:40;153813.44;;;10.72;66.29
10127;BME280;13080;42.608;23.362;2023-04-26T09:05:08;153852.38;;;10.87;65.29
10127;BME280;13080;42.608;23.362;2023-04-26T09:07:58;153823.78;;;10.76;64.19
10127;BME280;13080;42.608;23.362;2023-04-26T09:10:28;153795.22;;;10.65;66.46
10127;BME280;13080;42.608;23.362;2023-04-26T09:12:56;153825.13;;;10.76;65.11
10127;BME280;13080;42.608;23.362;2023-04-26T09:15:25;153808.25;;;10.70;64.42
10127;BME280;13080;42.608;23.362;2023-04-26T09:17:52;153803.06;;;10.68;65.95
10127;BME280;13080;42.608;23.362;2023-04-26T09:20:21;153862.78;;;10.91;65.18
10127;BME280;13080;42.608;23.362;2023-04-26T09:22:50;153779.66;;;10.58;65.21
10127;BME280;13080;42.608;23.362;2023-04-26T09:25:26;153801.72;;;10.67;65.71
10127;BME280;13080;42.608;23.362;2023-04-26T09:27:53;153768.00;;;10.54;64.99
10127;BME280;13080;42.608;23.362;2023-04-26T09:30:20;153751.09;;;10.47;66.39
10127;BME280;13080;42.608;23.362;2023-04-26T09:32:49;153803.06;;;10.68;66.66
10127;BME280;13080;42.608;23.362;2023-04-26T09:35:25;153866.69;;;10.93;67.04
10127;BME280;13080;42.608;23.362;2023-04-26T09:37:54;153874.47;;;10.96;65.69
10127;BME280;13080;42.608;23.362;2023-04-26T09:40:22;153906.97;;;11.09;64.90
10127;BME280;13080;42.608;23.362;2023-04-26T09:43:00;153943.31;;;11.23;65.11
10127;BME280;13080;42.608;23.362;2023-04-26T09:45:29;153984.94;;;11.39;65.26
10127;BME280;13080;42.608;23.362;2023-04-26T09:48:12;153955.00;;;11.28;63.13
10127;BME280;13080;42.608;23.362;2023-04-26T09:50:41;153973.25;;;11.35;63.38
10127;BME280;13080;42.608;23.362;2023-04-26T09:53:08;153969.31;;;11.33;62.07
10127;BME280;13080;42.608;23.362;2023-04-26T09:55:37;153925.13;;;11.16;63.01
10127;BME280;13080;42.608;23.362;2023-04-26T09:58:07;153947.22;;;11.24;62.47
10127;BME280;13080;42.608;23.362;2023-04-26T10:00:37;154026.50;;;11.56;61.07
10127;BME280;13080;42.608;23.362;2023-04-26T10:03:07;154068.09;;;11.72;60.93
10127;BME280;13080;42.608;23.362;2023-04-26T10:05:35;154117.56;;;11.92;61.83
10127;BME280;13080;42.608;23.362;2023-04-26T10:08:02;154121.47;;;11.93;60.80
10127;BME280;13080;42.608;23.362;2023-04-26T10:10:29;154131.88;;;11.97;62.03
10127;BME280;13080;42.608;23.362;2023-04-26T10:12:58;154191.66;;;12.21;58.47
10127;BME280;13080;42.608;23.362;2023-04-26T10:15:26;154112.34;;;11.90;60.21
10127;BME280;13080;42.608;23.362;2023-04-26T10:17:53;154120.13;;;11.93;59.98
10127;BME280;13080;42.608;23.362;2023-04-26T10:20:21;154220.28;;;12.32;61.75
10127;BME280;13080;42.608;23.362;2023-04-26T10:22:52;154235.88;;;12.38;59.57
10127;BME280;13080;42.608;23.362;2023-04-26T10:25:34;154192.94;;;12.21;58.52
10127;BME280;13080;42.608;23.362;2023-04-26T10:28:03;154160.47;;;12.09;58.06
10127;BME280;13080;42.608;23.362;2023-04-26T10:30:30;154156.56;;;12.07;58.93
10127;BME280;13080;42.608;23.362;2023-04-26T10:33:15;154148.78;;;12.04;59.70
10127;BME280;13080;42.608;23.362;2023-04-26T10:36:07;154174.75;;;12.14;60.40
10127;BME280;13080;42.608;23.362;2023-04-26T10:38:36;154243.69;;;12.41;58.07
10127;BME280;13080;42.608;23.362;2023-04-26T10:41:26;154170.84;;;12.13;58.93
10127;BME280;13080;42.608;23.362;2023-04-26T10:43:54;154226.78;;;12.35;58.48
10127;BME280;13080;42.608;23.362;2023-04-26T10:46:38;154174.75;;;12.14;55.77
10127;BME280;13080;42.608;23.362;2023-04-26T10:49:18;154163.06;;;12.10;57.50
10127;BME280;13080;42.608;23.362;2023-04-26T10:52:09;154209.88;;;12.28;57.32
10127;BME280;13080;42.608;23.362;2023-04-26T10:55:01;154247.59;;;12.43;56.21
10127;BME280;13080;42.608;23.362;2023-04-26T10:57:46;154233.25;;;12.37;54.75
10127;BME280;13080;42.608;23.362;2023-04-26T11:00:26;154224.19;;;12.34;56.13
10127;BME280;13080;42.608;23.362;2023-04-26T11:02:55;154213.78;;;12.30;54.92
10127;BME280;13080;42.608;23.362;2023-04-26T11:05:38;154230.69;;;12.36;56.13
10127;BME280;13080;42.608;23.362;2023-04-26T11:08:07;154312.59;;;12.68;56.07
10127;BME280;13080;42.608;23.362;2023-04-26T11:10:40;154315.25;;;12.69;55.26
10127;BME280;13080;42.608;23.362;2023-04-26T11:13:07;154183.88;;;12.18;53.84
10127;BME280;13080;42.608;23.362;2023-04-26T11:15:35;154250.19;;;12.44;55.62
10127;BME280;13080;42.608;23.362;2023-04-26T11:18:03;154336.03;;;12.78;56.21
10127;BME280;13080;42.608;23.362;2023-04-26T11:20:31;154355.56;;;12.85;55.32
10127;BME280;13080;42.608;23.362;2023-04-26T11:22:58;154434.94;;;13.17;52.53
10127;BME280;13080;42.608;23.362;2023-04-26T11:25:25;154489.59;;;13.38;52.69
10127;BME280;13080;42.608;23.362;2023-04-26T11:28:00;154429.72;;;13.15;48.66
10127;BME280;13080;42.608;23.362;2023-04-26T11:30:28;154397.19;;;13.02;50.78
10127;BME280;13080;42.608;23.362;2023-04-26T11:32:57;154393.25;;;13.00;50.36
10127;BME280;13080;42.608;23.362;2023-04-26T11:35:24;154498.75;;;13.42;52.20
10127;BME280;13080;42.608;23.362;2023-04-26T11:37:51;154451.84;;;13.23;48.48
10127;BME280;13080;42.608;23.362;2023-04-26T11:40:18;154442.72;;;13.20;49.57
10127;BME280;13080;42.608;23.362;2023-04-26T11:42:46;154367.25;;;12.90;49.39
10127;BME280;13080;42.608;23.362;2023-04-26T11:45:14;154445.34;;;13.21;50.38
10127;BME280;13080;42.608;23.362;2023-04-26T11:47:43;154490.94;;;13.39;49.26
10127;BME280;13080;42.608;23.362;2023-04-26T11:50:12;154445.34;;;13.21;50.56
10127;BME280;13080;42.608;23.362;2023-04-26T11:52:39;154445.34;;;13.21;51.55
10127;BME280;13080;42.608;23.362;2023-04-26T11:55:07;154350.34;;;12.83;50.58
10127;BME280;13080;42.608;23.362;2023-04-26T11:57:34;154311.31;;;12.68;50.58
10127;BME280;13080;42.608;23.362;2023-04-26T12:00:09;154316.53;;;12.70;50.94
10127;BME280;13080;42.608;23.362;2023-04-26T12:02:49;154398.47;;;13.02;52.54
10127;BME280;13080;42.608;23.362;2023-04-26T12:05:25;154446.63;;;13.21;50.08
10127;BME280;13080;42.608;23.362;2023-04-26T12:07:54;154477.91;;;13.34;49.34
10127;BME280;13080;42.608;23.362;2023-04-26T12:10:24;154515.66;;;13.48;51.69
10127;BME280;13080;42.608;23.362;2023-04-26T12:12:52;154513.03;;;13.47;50.79
10127;BME280;13080;42.608;23.362;2023-04-26T12:15:22;154510.44;;;13.46;48.14
10127;BME280;13080;42.608;23.362;2023-04-26T12:17:59;154397.19;;;13.02;51.25
10127;BME280;13080;42.608;23.362;2023-04-26T12:20:29;154488.31;;;13.38;52.11
10127;BME280;13080;42.608;23.362;2023-04-26T12:23:01;154490.94;;;13.39;49.52
10127;BME280;13080;42.608;23.362;2023-04-26T12:25:28;154437.50;;;13.18;49.71
10127;BME280;13080;42.608;23.362;2023-04-26T12:27:56;154423.22;;;13.12;51.63
10127;BME280;13080;42.608;23.362;2023-04-26T12:30:24;154428.44;;;13.14;51.78
10127;BME280;13080;42.608;23.362;2023-04-26T12:32:51;154324.31;;;12.73;49.42
10127;BME280;13080;42.608;23.362;2023-04-26T12:35:18;154328.22;;;12.75;51.00
10127;BME280;13080;42.608;23.362;2023-04-26T12:37:46;154352.94;;;12.84;50.03
10127;BME280;13080;42.608;23.362;2023-04-26T12:40:14;154415.38;;;13.09;50.79
10127;BME280;13080;42.608;23.362;2023-04-26T12:42:40;154423.22;;;13.12;49.89
10127;BME280;13080;42.608;23.362;2023-04-26T12:45:08;154454.44;;;13.24;49.53
10127;BME280;13080;42.608;23.362;2023-04-26T12:47:35;154428.44;;;13.14;48.17